createdAt,value
2023-04-10T00:00:31.467Z,101924.56
2023-04-10T00:03:04.732Z,101926.97
2023-04-10T00:05:37.809Z,101922.63
2023-04-10T00:08:12.133Z,101922.19
2023-04-10T00:10:44.890Z,101918.63
2023-04-10T00:13:19.016Z,101918.72
2023-04-10T00:15:52.020Z,101915.19
2023-04-10T00:18:24.734Z,101913.47
2023-04-10T00:20:57.722Z,101908.78
2023-04-10T00:23:34.607Z,101907.19
2023-04-10T00:26:07.405Z,101899.41
2023-04-10T00:28:41.652Z,101893.28
2023-04-10T00:31:14.629Z,101886.78
2023-04-10T00:33:47.536Z,101890.69
2023-04-10T00:36:20.716Z,101882.44
2023-04-10T00:38:53.691Z,101878.09
2023-04-10T00:41:26.688Z,101872.75
2023-04-10T00:44:01.116Z,101873.56
2023-04-10T00:46:35.441Z,101873.19
2023-04-10T00:49:09.501Z,101866.22
2023-04-10T00:51:43.719Z,101857.41
2023-04-10T00:54:16.818Z,101861.69
2023-04-10T00:56:51.163Z,101852.63
2023-04-10T00:59:25.375Z,101852.53
2023-04-10T01:01:58.895Z,101838.38
2023-04-10T01:04:33.649Z,101830.81
2023-04-10T01:07:12.499Z,101831.72
2023-04-10T01:09:49.993Z,101824.88
2023-04-10T01:12:38.204Z,101824.88
2023-04-10T01:15:14.245Z,101818.22
2023-04-10T01:17:51.863Z,101817.97
2023-04-10T01:20:26.267Z,101802.81
2023-04-10T01:23:22.694Z,101802.81
2023-04-10T01:26:00.108Z,101804.50
2023-04-10T01:28:54.597Z,101800.88
2023-04-10T01:31:35.722Z,101798.91
2023-04-10T01:34:11.406Z,101801.13
2023-04-10T01:36:56.279Z,101792.53
2023-04-10T01:39:31.472Z,101790.84
2023-04-10T01:42:08.410Z,101786.97
2023-04-10T01:44:49.851Z,101789.59
2023-04-10T01:47:25.371Z,101782.88
2023-04-10T01:49:59.876Z,101781.34
2023-04-10T01:52:34.704Z,101779.88
2023-04-10T01:55:29.135Z,101774.19
2023-04-10T01:58:08.313Z,101780.38
2023-04-10T02:00:44.219Z,101782.59
2023-04-10T02:03:18.965Z,101776.41
2023-04-10T02:06:04.715Z,101782.84
2023-04-10T02:08:41.615Z,101781.59
2023-04-10T02:11:26.436Z,101785.69
2023-04-10T02:14:02.324Z,101787.75
2023-04-10T02:16:40.763Z,101797.56
2023-04-10T02:19:14.120Z,101789.50
2023-04-10T02:21:51.321Z,101783.91
2023-04-10T02:24:24.672Z,101784.34
2023-04-10T02:26:57.926Z,101777.63
2023-04-10T02:29:30.790Z,101781.53
2023-04-10T02:32:05.112Z,101793.28
2023-04-10T02:34:37.904Z,101789.41
2023-04-10T02:37:12.208Z,101791.94
2023-04-10T02:39:45.148Z,101801.09
2023-04-10T02:42:20.925Z,101796.28
2023-04-10T02:44:54.075Z,101795.59
2023-04-10T02:47:28.668Z,101788.06
2023-04-10T02:50:01.518Z,101785.75
2023-04-10T02:52:39.153Z,101786.22
2023-04-10T02:55:12.375Z,101776.38
2023-04-10T02:57:47.245Z,101773.97
2023-04-10T03:00:20.405Z,101777.50
2023-04-10T03:03:26.601Z,101772.72
2023-04-10T03:06:01.605Z,101772.03
2023-04-10T03:08:40.564Z,101769.56
2023-04-10T03:11:13.394Z,101770.34
2023-04-10T03:13:46.397Z,101767.25
2023-04-10T03:16:19.260Z,101764.06
2023-04-10T03:18:54.249Z,101763.25
2023-04-10T03:21:27.670Z,101760.53
2023-04-10T03:24:01.207Z,101752.19
2023-04-10T03:26:34.002Z,101750.22
2023-04-10T03:29:06.843Z,101746.69
2023-04-10T03:31:40.422Z,101741.81
2023-04-10T03:34:14.790Z,101738.72
2023-04-10T03:36:48.015Z,101733.25
2023-04-10T03:39:21.589Z,101728.44
2023-04-10T03:41:54.302Z,101725.16
2023-04-10T03:44:30.385Z,101717.72
2023-04-10T03:47:05.970Z,101718.84
2023-04-10T03:49:40.146Z,101718.06
2023-04-10T03:52:13.297Z,101714.16
2023-04-10T03:54:46.496Z,101722.75
2023-04-10T03:57:29.410Z,101715.69
2023-04-10T04:00:09.693Z,101716.84
2023-04-10T04:02:55.548Z,101717.28
2023-04-10T04:05:53.215Z,101707.88
2023-04-10T04:08:31.811Z,101709.75
2023-04-10T04:11:23.684Z,101708.84
2023-04-10T04:14:12.778Z,101708.41
2023-04-10T04:17:10.608Z,101698.94
2023-04-10T04:20:10.541Z,101697.19
2023-04-10T04:22:50.800Z,101699.75
2023-04-10T04:25:49.728Z,101700.97
2023-04-10T04:28:43.788Z,101683.28
2023-04-10T04:31:35.602Z,101680.53
2023-04-10T04:34:37.555Z,101671.59
2023-04-10T04:37:28.427Z,101677.50
2023-04-10T04:40:22.808Z,101674.56
2023-04-10T04:43:22.325Z,101675.91
2023-04-10T04:46:25.153Z,101676.34
2023-04-10T04:49:18.077Z,101676.28
2023-04-10T04:52:11.205Z,101674.75
2023-04-10T04:55:07.668Z,101676.16
2023-04-10T04:58:02.829Z,101676.16
2023-04-10T05:01:08.994Z,101666.88
2023-04-10T05:04:00.858Z,101665.19
2023-04-10T05:06:51.943Z,101666.22
2023-04-10T05:09:39.499Z,101658.31
2023-04-10T05:12:27.360Z,101658.22
2023-04-10T05:15:03.178Z,101665.38
2023-04-10T05:18:14.168Z,101665.56
2023-04-10T05:21:08.424Z,101661.31
2023-04-10T05:24:07.169Z,101658.31
2023-04-10T05:26:58.397Z,101652.03
2023-04-10T05:29:48.986Z,101647.69
2023-04-10T05:32:49.148Z,101655.56
2023-04-10T05:35:29.941Z,101659.00
2023-04-10T05:38:09.418Z,101650.59
2023-04-10T05:40:49.067Z,101642.81
2023-04-10T05:43:51.142Z,101646.34
2023-04-10T05:46:40.309Z,101642.81
2023-04-10T05:49:53.539Z,101640.44
2023-04-10T05:52:46.826Z,101639.28
2023-04-10T05:55:38.381Z,101633.53
2023-04-10T05:58:45.934Z,101641.31
2023-04-10T06:01:47.845Z,101637.44
2023-04-10T06:04:22.316Z,101635.13
2023-04-10T06:07:00.223Z,101628.75
2023-04-10T06:09:33.125Z,101620.25
2023-04-10T06:12:07.976Z,101613.16
2023-04-10T06:14:42.542Z,101603.50
2023-04-10T06:17:15.868Z,101591.38
2023-04-10T06:19:48.971Z,101602.00
2023-04-10T06:22:25.240Z,101602.53
2023-04-10T06:24:58.029Z,101601.81
2023-04-10T06:27:30.874Z,101590.03
2023-04-10T06:30:04.300Z,101589.22
2023-04-10T06:32:36.975Z,101586.94
2023-04-10T06:35:10.396Z,101591.81
2023-04-10T06:37:44.621Z,101590.28
2023-04-10T06:40:17.415Z,101576.56
2023-04-10T06:42:50.377Z,101588.88
2023-04-10T06:45:43.001Z,101580.69
2023-04-10T06:48:16.483Z,101580.50
2023-04-10T06:50:49.325Z,101580.78
2023-04-10T06:53:23.401Z,101568.66
2023-04-10T06:55:56.735Z,101568.72
2023-04-10T06:58:29.520Z,101562.53
2023-04-10T07:01:04.618Z,101565.28
2023-04-10T07:03:38.541Z,101566.50
2023-04-10T07:06:12.136Z,101562.59
2023-04-10T07:08:46.294Z,101557.97
2023-04-10T07:11:19.132Z,101547.41
2023-04-10T07:13:54.037Z,101547.13
2023-04-10T07:16:27.532Z,101533.09
2023-04-10T07:19:00.751Z,101527.31
2023-04-10T07:21:34.062Z,101531.81
2023-04-10T07:24:08.311Z,101530.00
2023-04-10T07:26:41.183Z,101530.47
2023-04-10T07:29:16.064Z,101525.69
2023-04-10T07:31:49.122Z,101520.97
2023-04-10T07:34:22.007Z,101511.16
2023-04-10T07:36:54.753Z,101512.03
2023-04-10T07:39:28.869Z,101515.34
2023-04-10T07:42:01.704Z,101507.09
2023-04-10T07:44:34.437Z,101506.72
2023-04-10T07:47:07.264Z,101510.25
2023-04-10T07:49:46.914Z,101500.47
2023-04-10T07:52:20.066Z,101501.09
2023-04-10T07:54:54.372Z,101483.44
2023-04-10T07:57:27.295Z,101482.72
2023-04-10T07:59:59.971Z,101480.81
2023-04-10T08:02:33.138Z,101472.28
2023-04-10T08:05:07.204Z,101480.03
2023-04-10T08:07:40.065Z,101470.44
2023-04-10T08:10:14.606Z,101465.22
2023-04-10T08:12:47.359Z,101460.13
2023-04-10T08:15:21.523Z,101466.75
2023-04-10T08:17:54.542Z,101462.47
2023-04-10T08:20:27.550Z,101462.34
2023-04-10T08:23:09.192Z,101456.97
2023-04-10T08:25:53.581Z,101460.19
2023-04-10T08:28:26.425Z,101459.50
2023-04-10T08:30:59.339Z,101452.84
2023-04-10T08:33:32.063Z,101458.22
2023-04-10T08:36:06.052Z,101440.22
2023-04-10T08:38:38.972Z,101433.44
2023-04-10T08:41:13.653Z,101433.91
2023-04-10T08:43:47.375Z,101411.81
2023-04-10T08:46:20.765Z,101412.09
2023-04-10T08:48:59.120Z,101413.47
2023-04-10T08:51:37.523Z,101407.13
2023-04-10T08:54:19.682Z,101415.69
2023-04-10T08:56:56.889Z,101400.34
2023-04-10T08:59:30.827Z,101399.63
2023-04-10T09:02:03.982Z,101403.88
2023-04-10T09:04:37.894Z,101401.81
2023-04-10T09:07:10.875Z,101388.91
2023-04-10T09:09:43.475Z,101386.28
2023-04-10T09:12:17.717Z,101385.72
2023-04-10T09:14:53.399Z,101377.06
2023-04-10T09:17:26.244Z,101391.13
2023-04-10T09:19:58.945Z,101373.47
2023-04-10T09:22:34.471Z,101360.59
2023-04-10T09:25:28.078Z,101372.03
2023-04-10T09:28:06.359Z,101367.88
2023-04-10T09:30:41.335Z,101364.97
2023-04-10T09:33:23.515Z,101366.13
2023-04-10T09:36:00.045Z,101362.28
2023-04-10T09:38:32.924Z,101360.16
2023-04-10T09:41:09.606Z,101360.16
2023-04-10T09:43:46.026Z,101350.84
2023-04-10T09:46:28.705Z,101347.13
2023-04-10T09:49:05.055Z,101340.03
2023-04-10T09:51:39.541Z,101336.47
2023-04-10T09:54:12.775Z,101341.66
2023-04-10T09:56:47.117Z,101334.53
2023-04-10T09:59:21.404Z,101317.34
2023-04-10T10:01:54.273Z,101311.97
2023-04-10T10:04:28.275Z,101306.75
2023-04-10T10:07:01.711Z,101305.97
2023-04-10T10:09:36.419Z,101304.34
2023-04-10T10:12:11.106Z,101300.56
2023-04-10T10:14:58.839Z,101297.31
2023-04-10T10:17:42.406Z,101294.28
2023-04-10T10:20:19.504Z,101286.44
2023-04-10T10:22:54.102Z,101273.03
2023-04-10T10:25:27.681Z,101272.31
2023-04-10T10:28:03.684Z,101263.53
2023-04-10T10:30:39.005Z,101259.63
2023-04-10T10:33:13.742Z,101254.53
2023-04-10T10:35:47.769Z,101252.16
2023-04-10T10:38:21.480Z,101244.66
2023-04-10T10:41:03.091Z,101240.31
2023-04-10T10:43:48.086Z,101241.91
2023-04-10T10:46:27.844Z,101237.16
2023-04-10T10:49:02.173Z,101236.31
2023-04-10T10:51:44.632Z,101224.47
2023-04-10T10:54:31.182Z,101207.41
2023-04-10T10:57:06.656Z,101209.78
2023-04-10T10:59:58.035Z,101198.31
2023-04-10T11:02:32.260Z,101198.31
2023-04-10T11:05:05.511Z,101184.84
2023-04-10T11:08:08.953Z,101184.00
2023-04-10T11:11:00.866Z,101183.22
2023-04-10T11:13:34.116Z,101184.41
2023-04-10T11:16:10.405Z,101185.19
2023-04-10T11:19:13.839Z,101172.06
2023-04-10T11:22:05.729Z,101176.91
2023-04-10T11:24:59.669Z,101168.22
2023-04-10T11:27:53.637Z,101161.84
2023-04-10T11:30:27.992Z,101153.59
2023-04-10T11:33:02.097Z,101156.41
2023-04-10T11:35:36.358Z,101145.72
2023-04-10T11:38:18.959Z,101137.44
2023-04-10T11:41:01.523Z,101129.59
2023-04-10T11:43:35.832Z,101132.34
2023-04-10T11:46:08.939Z,101131.97
2023-04-10T11:48:41.779Z,101128.84
2023-04-10T11:51:16.087Z,101130.84
2023-04-10T11:53:49.288Z,101135.22
2023-04-10T11:56:22.892Z,101143.09
2023-04-10T11:58:56.258Z,101138.41
2023-04-10T12:01:29.554Z,101149.47
2023-04-10T12:04:02.812Z,101150.66
2023-04-10T12:06:37.503Z,101136.06
2023-04-10T12:09:14.663Z,101132.16
2023-04-10T12:11:53.049Z,101126.22
2023-04-10T12:14:31.888Z,101117.91
2023-04-10T12:17:09.997Z,101121.09
2023-04-10T12:19:42.971Z,101117.13
2023-04-10T12:22:17.145Z,101117.94
2023-04-10T12:24:51.820Z,101114.75
2023-04-10T12:27:26.632Z,101111.63
2023-04-10T12:30:00.238Z,101102.91
2023-04-10T12:32:33.182Z,101095.06
2023-04-10T12:35:06.164Z,101089.13
2023-04-10T12:37:50.738Z,101089.88
2023-04-10T12:40:23.695Z,101083.19
2023-04-10T12:42:56.446Z,101070.19
2023-04-10T12:45:44.502Z,101046.91
2023-04-10T12:48:24.357Z,101049.28
2023-04-10T12:50:57.297Z,101042.94
2023-04-10T12:53:31.331Z,101031.50
2023-04-10T12:56:06.398Z,101043.31
2023-04-10T12:58:39.477Z,101043.31
2023-04-10T13:01:14.165Z,101047.66
2023-04-10T13:03:49.105Z,101048.81
2023-04-10T13:06:21.888Z,101027.50
2023-04-10T13:08:56.412Z,101037.34
2023-04-10T13:11:29.486Z,101022.38
2023-04-10T13:14:02.314Z,101010.16
2023-04-10T13:16:35.564Z,101012.13
2023-04-10T13:19:08.432Z,101000.28
2023-04-10T13:21:41.195Z,101003.06
2023-04-10T13:24:16.710Z,101008.13
2023-04-10T13:26:49.919Z,100992.03
2023-04-10T13:29:22.665Z,100990.41
2023-04-10T13:31:55.633Z,100988.06
2023-04-10T13:34:28.356Z,100987.69
2023-04-10T13:37:01.816Z,100980.59
2023-04-10T13:39:36.091Z,100977.44
2023-04-10T13:42:08.763Z,100989.63
2023-04-10T13:44:41.692Z,100960.06
2023-04-10T13:47:14.738Z,100980.53
2023-04-10T13:49:47.784Z,100958.47
2023-04-10T13:52:20.407Z,100954.16
2023-04-10T13:54:56.850Z,100956.94
2023-04-10T13:57:30.704Z,100941.19
2023-04-10T14:00:04.709Z,100933.25
2023-04-10T14:02:45.627Z,100927.78
2023-04-10T14:05:19.332Z,100921.84
2023-04-10T14:07:56.798Z,100912.78
2023-04-10T14:10:31.561Z,100912.41
2023-04-10T14:13:04.250Z,100919.09
2023-04-10T14:15:37.291Z,100922.22
2023-04-10T14:18:10.390Z,100920.69
2023-04-10T14:20:43.361Z,100928.94
2023-04-10T14:23:18.438Z,100920.66
2023-04-10T14:25:52.882Z,100919.09
2023-04-10T14:28:25.768Z,100924.19
2023-04-10T14:30:59.433Z,100915.94
2023-04-10T14:33:32.561Z,100915.16
2023-04-10T14:36:06.417Z,100913.53
2023-04-10T14:38:39.826Z,100909.56
2023-04-10T14:41:16.384Z,100907.59
2023-04-10T14:43:49.744Z,100914.31
2023-04-10T14:46:23.063Z,100919.78
2023-04-10T14:48:58.027Z,100924.94
2023-04-10T14:51:30.976Z,100923.78
2023-04-10T14:54:04.411Z,100921.81
2023-04-10T14:56:38.744Z,100916.66
2023-04-10T14:59:13.900Z,100918.25
2023-04-10T15:01:46.664Z,100909.59
2023-04-10T15:04:19.521Z,100909.22
2023-04-10T15:06:55.339Z,100904.81
2023-04-10T15:09:28.086Z,100904.03
2023-04-10T15:12:02.217Z,100903.66
2023-04-10T15:14:35.228Z,100904.84
2023-04-10T15:17:08.128Z,100899.31
2023-04-10T15:19:41.187Z,100900.13
2023-04-10T15:22:16.362Z,100887.94
2023-04-10T15:24:50.874Z,100892.25
2023-04-10T15:27:26.669Z,100879.66
2023-04-10T15:29:59.409Z,100876.50
2023-04-10T15:32:32.488Z,100861.56
2023-04-10T15:35:06.361Z,100867.88
2023-04-10T15:37:39.083Z,100867.06
2023-04-10T15:40:12.210Z,100855.28
2023-04-10T15:42:46.647Z,100855.28
2023-04-10T15:45:20.612Z,100849.72
2023-04-10T15:47:53.280Z,100846.59
2023-04-10T15:50:26.447Z,100826.91
2023-04-10T15:52:59.279Z,100808.41
2023-04-10T15:55:31.817Z,100804.88
2023-04-10T15:58:07.953Z,100791.88
2023-04-10T16:00:41.186Z,100800.94
2023-04-10T16:03:14.537Z,100812.34
2023-04-10T16:05:47.315Z,100810.38
2023-04-10T16:08:20.623Z,100819.03
2023-04-10T16:10:53.548Z,100806.44
2023-04-10T16:13:27.580Z,100808.78
2023-04-10T16:16:01.123Z,100822.19
2023-04-10T16:18:34.008Z,100816.69
2023-04-10T16:21:09.229Z,100829.31
2023-04-10T16:23:42.102Z,100827.63
2023-04-10T16:26:14.849Z,100830.44
2023-04-10T16:28:48.924Z,100828.47
2023-04-10T16:31:21.759Z,100832.44
2023-04-10T16:33:54.456Z,100837.16
2023-04-10T16:36:27.255Z,100830.88
2023-04-10T16:39:00.092Z,100814.31
2023-04-10T16:41:32.846Z,100814.31
2023-04-10T16:44:07.210Z,100828.09
2023-04-10T16:46:39.961Z,100825.72
2023-04-10T16:49:13.089Z,100824.53
2023-04-10T16:51:45.805Z,100819.06
2023-04-10T16:54:18.951Z,100815.09
2023-04-10T16:56:51.798Z,100809.59
2023-04-10T16:59:26.040Z,100785.59
2023-04-10T17:01:59.201Z,100780.09
2023-04-10T17:04:32.067Z,100766.69
2023-04-10T17:07:04.749Z,100769.75
2023-04-10T17:09:38.061Z,100772.22
2023-04-10T17:12:11.133Z,100769.06
2023-04-10T17:14:45.412Z,100777.72
2023-04-10T17:17:18.564Z,100760.38
2023-04-10T17:19:51.499Z,100756.84
2023-04-10T17:22:24.205Z,100759.22
2023-04-10T17:24:56.996Z,100763.53
2023-04-10T17:27:29.781Z,100767.06
2023-04-10T17:30:04.079Z,100756.44
2023-04-10T17:32:37.050Z,100761.56
2023-04-10T17:35:10.096Z,100765.50
2023-04-10T17:37:43.026Z,100757.59
2023-04-10T17:40:15.871Z,100761.16
2023-04-10T17:42:55.122Z,100758.03
2023-04-10T17:45:29.917Z,100748.19
2023-04-10T17:48:03.129Z,100756.03
2023-04-10T17:50:36.570Z,100765.09
2023-04-10T17:53:11.993Z,100749.75
2023-04-10T17:55:47.319Z,100741.91
2023-04-10T17:58:20.446Z,100744.25
2023-04-10T18:00:56.956Z,100737.97
2023-04-10T18:03:29.956Z,100745.03
2023-04-10T18:06:02.833Z,100748.59
2023-04-10T18:08:35.867Z,100750.47
2023-04-10T18:11:09.316Z,100754.47
2023-04-10T18:13:42.262Z,100762.34
2023-04-10T18:16:17.437Z,100748.97
2023-04-10T18:18:50.443Z,100759.91
2023-04-10T18:21:23.086Z,100753.72
2023-04-10T18:23:56.098Z,100736.38
2023-04-10T18:26:31.993Z,100730.09
2023-04-10T18:29:05.432Z,100714.34
2023-04-10T18:31:39.700Z,100734.75
2023-04-10T18:34:12.570Z,100726.91
2023-04-10T18:36:45.338Z,100728.84
2023-04-10T18:39:18.135Z,100733.97
2023-04-10T18:41:50.898Z,100739.47
2023-04-10T18:44:24.685Z,100752.81
2023-04-10T18:47:04.486Z,100746.88
2023-04-10T18:49:41.011Z,100744.97
2023-04-10T18:52:13.803Z,100753.53
2023-04-10T18:54:46.722Z,100749.22
2023-04-10T18:57:19.458Z,100743.69
2023-04-10T18:59:52.308Z,100745.25
2023-04-10T19:02:26.894Z,100733.47
2023-04-10T19:05:00.164Z,100740.03
2023-04-10T19:07:33.585Z,100718.06
2023-04-10T19:10:07.413Z,100718.94
2023-04-10T19:12:40.464Z,100725.56
2023-04-10T19:15:13.728Z,100721.59
2023-04-10T19:17:48.210Z,100717.25
2023-04-10T19:20:49.912Z,100729.44
2023-04-10T19:23:14.500Z,100733.41
2023-04-10T19:25:48.749Z,100738.47
2023-04-10T19:28:23.239Z,100728.69
2023-04-10T19:31:01.378Z,100728.94
2023-04-10T19:33:35.946Z,100741.56
2023-04-10T19:36:16.597Z,100731.34
2023-04-10T19:38:51.232Z,100743.84
2023-04-10T19:41:24.451Z,100749.84
2023-04-10T19:43:58.642Z,100752.56
2023-04-10T19:46:36.354Z,100749.75
2023-04-10T19:49:10.685Z,100741.59
2023-04-10T19:51:43.718Z,100741.59
2023-04-10T19:54:19.929Z,100733.63
2023-04-10T19:56:56.789Z,100734.41
2023-04-10T19:59:30.390Z,100723.84
2023-04-10T20:02:06.437Z,100717.19
2023-04-10T20:04:41.100Z,100710.16
2023-04-10T20:07:16.007Z,100708.56
2023-04-10T20:09:49.356Z,100713.28
2023-04-10T20:12:22.430Z,100713.97
2023-04-10T20:14:57.264Z,100713.19
2023-04-10T20:17:44.890Z,100713.28
2023-04-10T20:20:19.100Z,100712.44
2023-04-10T20:22:52.112Z,100715.59
2023-04-10T20:25:24.814Z,100706.19
2023-04-10T20:27:57.950Z,100686.91
2023-04-10T20:30:31.980Z,100686.53
2023-04-10T20:33:05.033Z,100689.31
2023-04-10T20:35:39.696Z,100698.66
2023-04-10T20:38:12.492Z,100694.34
2023-04-10T20:40:46.119Z,100694.31
2023-04-10T20:43:19.028Z,100677.84
2023-04-10T20:45:51.945Z,100677.84
2023-04-10T20:48:24.646Z,100688.06
2023-04-10T20:50:58.955Z,100682.53
2023-04-10T20:53:31.838Z,100684.09
2023-04-10T20:56:06.330Z,100684.84
2023-04-10T20:58:39.426Z,100685.63
2023-04-10T21:01:12.076Z,100705.28
2023-04-10T21:03:45.001Z,100718.91
2023-04-10T21:06:19.133Z,100703.66
2023-04-10T21:08:53.838Z,100708.34
2023-04-10T21:11:27.328Z,100740.56
2023-04-10T21:14:00.250Z,100753.03
2023-04-10T21:16:35.035Z,100755.75
2023-04-10T21:19:08.042Z,100761.91
2023-04-10T21:21:42.016Z,100753.84
2023-04-10T21:24:14.752Z,100751.44
2023-04-10T21:26:47.523Z,100764.50
2023-04-10T21:29:20.459Z,100746.00
2023-04-10T21:31:53.429Z,100735.78
2023-04-10T21:34:26.267Z,100733.44
2023-04-10T21:37:00.930Z,100725.06
2023-04-10T21:39:33.597Z,100711.28
2023-04-10T21:42:07.641Z,100708.97
2023-04-10T21:44:40.470Z,100710.13
2023-04-10T21:47:14.382Z,100697.53
2023-04-10T21:49:47.076Z,100705.78
2023-04-10T21:52:21.582Z,100718.34
2023-04-10T21:55:01.858Z,100712.84
2023-04-10T21:57:35.560Z,100708.09
2023-04-10T22:00:09.542Z,100714.78
2023-04-10T22:02:42.412Z,100713.56
2023-04-10T22:05:15.905Z,100721.00
2023-04-10T22:07:50.071Z,100720.91
2023-04-10T22:10:22.818Z,100722.19
2023-04-10T22:12:55.687Z,100722.91
2023-04-10T22:30:15.603Z,100736.00
2023-04-10T22:35:56.310Z,100728.47
2023-04-10T22:38:32.496Z,100733.56
2023-04-10T22:41:06.630Z,100734.34
2023-04-10T22:43:39.395Z,100737.41
2023-04-10T22:46:13.542Z,100724.94
2023-04-10T22:48:47.845Z,100725.66
2023-04-10T22:51:21.024Z,100731.94
2023-04-10T22:53:54.811Z,100725.25
2023-04-10T22:56:29.394Z,100735.06
2023-04-10T22:59:02.160Z,100735.63
2023-04-10T23:01:36.584Z,100728.94
2023-04-10T23:04:09.718Z,100731.31
2023-04-10T23:06:42.885Z,100721.59
2023-04-10T23:09:15.792Z,100730.38
2023-04-10T23:11:51.194Z,100738.69
2023-04-10T23:14:23.993Z,100732.84
2023-04-10T23:16:58.049Z,100737.50
2023-04-10T23:19:30.814Z,100745.56
2023-04-10T23:22:03.609Z,100733.09
2023-04-10T23:24:36.346Z,100746.53
2023-04-10T23:27:09.090Z,100746.91
2023-04-10T23:29:41.779Z,100738.69
2023-04-10T23:32:16.838Z,100742.66
2023-04-10T23:34:49.659Z,100742.91
2023-04-10T23:37:22.388Z,100756.16
2023-04-10T23:39:55.153Z,100755.44
2023-04-10T23:42:27.927Z,100759.81
2023-04-10T23:45:00.602Z,100755.75
2023-04-10T23:47:35.093Z,100763.25
2023-04-10T23:50:08.996Z,100757.69
2023-04-10T23:52:41.892Z,100765.94
2023-04-10T23:55:14.456Z,100774.16
2023-04-10T23:57:47.126Z,100769.44
